CDT,Max TemperatureF,Mean TemperatureF,Min TemperatureF,Max Dew PointF,MeanDew PointF,Min DewpointF,Max Humidity, Mean Humidity, Min Humidity, Max Sea Level PressureIn, Mean Sea Level PressureIn, Min Sea Level PressureIn, Max VisibilityMiles, Mean VisibilityMiles, Min VisibilityMiles, Max Wind SpeedMPH, Mean Wind SpeedMPH, Max Gust SpeedMPH,PrecipitationIn, CloudCover, Events, WindDirDegrees
2013-3-1,32,24,15,26,19,13,93,87,76,30.30,30.26,30.20,10,7,0,7,3,,0.00,4,Fog-Snow,59
2013-3-2,57,38,19,36,30,17,92,71,42,30.25,30.09,29.94,10,10,10,15,7,17,0.00,3,,235
2013-3-3,54,44,35,40,35,31,87,74,55,29.94,29.68,29.51,10,10,10,15,7,20,0.00,2,,170
2013-3-4,44,32,21,34,21,7,88,60,31,30.08,29.82,29.51,10,10,4,31,17,43,0.00,3,Snow,315
2013-3-5,32,24,15,15,11,9,82,62,42,30.33,30.25,30.08,10,10,5,34,23,48,0.03,2,Snow-Thunderstorm,335
2013-3-6,43,28,13,22,16,9,84,64,28,30.31,30.15,29.99,10,10,10,23,9,30,0.00,0,,151
2013-3-7,55,40,25,27,24,20,84,61,29,30.08,29.98,29.94,10,10,10,23,14,28,0.00,0,,184
2013-3-8,50,38,26,32,28,24,92,69,42,30.08,29.96,29.77,10,8,3,20,7,24,0.00,2,,57
2013-3-9,39,34,28,33,29,26,96,90,75,29.96,29.76,29.67,10,3,0,34,14,41,0.28,8,Rain-Snow-Thunderstorm,355
2013-3-10,29,20,10,26,14,7,87,78,69,30.14,30.06,29.96,10,6,1,32,24,39,0.00,4,Snow,334
2013-3-11,46,28,9,32,18,6,85,71,53,30.04,29.91,29.82,10,10,10,21,6,25,0.00,1,,286
2013-3-12,35,28,20,22,13,3,70,54,26,30.28,30.19,30.04,10,10,10,29,14,37,0.00,1,,317
2013-3-13,57,37,17,32,22,10,77,57,33,30.29,30.17,30.05,10,10,10,18,7,23,0.00,2,,183
2013-3-14,69,53,37,36,31,27,77,52,21,30.17,30.08,29.97,10,10,10,13,7,,0.00,0,,260
2013-3-15,59,48,37,37,34,30,82,59,42,29.96,29.85,29.77,10,10,10,13,8,17,0.00,0,,332
2013-3-16,32,30,23,31,21,18,92,75,58,30.13,30.06,29.96,10,9,3,21,13,26,0.00,8,,24
2013-3-17,39,32,25,32,25,20,82,75,65,30.06,29.75,29.49,10,10,4,30,16,38,0.00,7,Snow,159
2013-3-18,37,30,22,26,10,-2,75,48,20,29.99,29.88,29.69,10,10,10,31,18,39,0.00,2,,318
2013-3-19,44,32,20,20,13,2,74,49,24,30.35,30.11,29.96,10,10,10,26,11,34,0.00,1,,305
2013-3-20,45,30,14,12,7,2,74,46,17,30.36,30.18,29.94,10,10,10,20,6,23,0.00,0,,210
2013-3-21,41,32,24,24,19,10,90,64,43,29.93,29.81,29.73,10,9,1,23,17,31,0.01,7,Snow,128
2013-3-22,32,28,25,26,24,22,92,86,75,29.98,29.87,29.81,10,5,1,13,8,,0.10,8,Snow,103
2013-3-23,28,24,19,27,19,12,94,78,58,30.17,30.09,29.98,10,7,1,24,12,29,0.00,6,Snow,351
2013-3-24,26,18,12,18,12,5,82,70,53,30.19,30.13,30.08,10,9,1,26,14,33,0.00,3,Snow,324
2013-3-25,27,20,14,18,13,9,86,73,55,30.30,30.26,30.19,10,8,2,21,12,25,0.00,5,Snow,327
2013-3-26,46,28,9,28,16,4,84,66,35,30.29,30.14,30.02,10,10,10,17,8,24,0.00,0,,161
2013-3-27,54,39,24,27,21,11,86,55,19,30.14,30.10,30.05,10,10,10,12,7,,0.00,0,,151
2013-3-28,67,48,31,36,27,21,79,49,20,30.14,30.09,30.02,10,10,7,18,9,26,0.01,4,Rain,179
2013-3-29,69,50,32,47,35,26,93,61,23,30.12,30.05,29.95,10,10,5,25,9,32,0.05,2,Rain-Thunderstorm,182
2013-3-30,61,49,37,44,36,27,95,66,27,30.03,30.00,29.96,10,9,0,21,7,28,0.01,4,Fog-Rain,289
2013-3-31,57,43,30,34,27,16,89,60,28,30.19,30.04,29.92,10,10,10,21,10,25,0.00,2,,347